Amado Nervo National Airport
MMEP : now visible

Airfield :











YOU CAN JOIN US ON...

 
LOGIN :

Register | Disclaimer

   EN    FR    IT 

 









Legend :    VFR   Marginal VFR   IFR   Intensive IFR   Very Intensive IFR
Visi :
Ceiling :
>= 8 km
>= 3000ft
5 to 8 km
1000 to 3000 ft
1500m to 5 km
500 to 1000 ft
800 to 1500m
200 to 500 ft
< 800m
< 200 ft
Symbols :   Thunderstorms  Fog  Heavy snow  Heavy precipitations  Wind > 20 kt






- Airport Elevation : 3020 ft
- IATA code : TPQ


MMEP - Amado Nervo National

CURRENT METAR :
  • 220152Z 00000KT 8SM SCT020 20/16 A3012 RMK 8/500

EXPIRED METARs :
  • 220053Z 00000KT 8SM BKN020 22/15 A3010 RMK 8/500
  • 212345Z 36005KT 12SM SCT030 24/15 A3008 RMK SLP169 55005 908 8/500 AC W

TAF AMD TAF MMEP
Valid from the 22 at 01:00 until the 22 at 18:00 UTC


220058Z 2201/2218 00000KT P6SM BKN020
BECMG 2208/2209 3SM BR
FM221500 00000KT 5SM HZ SCT020



MET'MAP, your aeronautical weather chart ! - Copyright ORBIFLY December 2007 - Disclaimer

ORBIFLY MET'MAP TEAM :

Programming & Development : Alexandra Zaïnal
Concept & original design : Baudouin d'Aumeries
Assistance for programming : Marc-Olivier Méhu
Technical & hardware support : Manuel Goepfert

Contact : metmap@orbifly.com




SOURCES & CREDITS :

   NOAA       Earth
Advisory